Ada, Michigan
Current Conditions -  °F | °C
As of 1:53 PM on Sunday 23 Nov 2014 (Local Time) from KGRR Reporting Station
Overcast Overcast  
Wind Chill: 10°   Ceiling: 9500
Heat Index: 10°   Visibility: 10mi
Dew Point:   Wind: 10mph
Humidity: 86%   Direction: 170°S
Pressure: 29.67"   Gusts: NA
Location:  42.95°N, 85.49°W
Report Text: KGRR 231853Z 17009KT 10SM FEW030 FEW070 OVC095 10/08 A2967 RMK AO2 SLP050 T01000078
Loading
Personal Weather Stations






























Interactive Weather Map New forecast layout! Learn more

10-Day Weather Forecast

Advertisements
Track Severe Weather on mobile